sensor_id;sensor_type;location;lat;lon;timestamp;pressure;altitude;pressure_sealevel;temperature;humidity
56558;BME280;43358;50.356;12.456;2023-01-26T00:00:35;96003;;;-1.5;98.8
56558;BME280;43358;50.356;12.456;2023-01-26T00:01:37;95999;;;-1.5;98.8
56558;BME280;43358;50.356;12.456;2023-01-26T00:02:39;95999;;;-1.5;98.8
56558;BME280;43358;50.356;12.456;2023-01-26T00:03:41;96001;;;-1.4;98.8
56558;BME280;43358;50.356;12.456;2023-01-26T00:04:43;96004;;;-1.4;98.8
56558;BME280;43358;50.356;12.456;2023-01-26T00:05:45;95996;;;-1.5;98.8
56558;BME280;43358;50.356;12.456;2023-01-26T00:06:47;95996;;;-1.5;98.8
56558;BME280;43358;50.356;12.456;2023-01-26T00:07:49;95992;;;-1.5;98.8
56558;BME280;43358;50.356;12.456;2023-01-26T00:08:52;95991;;;-1.5;98.8
56558;BME280;43358;50.356;12.456;2023-01-26T00:09:54;95991;;;-1.6;98.8
56558;BME280;43358;50.356;12.456;2023-01-26T00:10:56;95989;;;-1.6;98.8
56558;BME280;43358;50.356;12.456;2023-01-26T00:11:58;95990;;;-1.6;98.8
56558;BME280;43358;50.356;12.456;2023-01-26T00:13:01;95986;;;-1.6;98.8
56558;BME280;43358;50.356;12.456;2023-01-26T00:14:03;95984;;;-1.6;98.8
56558;BME280;43358;50.356;12.456;2023-01-26T00:15:06;95982;;;-1.6;98.8
56558;BME280;43358;50.356;12.456;2023-01-26T00:16:08;95980;;;-1.6;98.8
56558;BME280;43358;50.356;12.456;2023-01-26T00:17:09;95983;;;-1.6;98.8
56558;BME280;43358;50.356;12.456;2023-01-26T00:18:11;95978;;;-1.6;98.8
56558;BME280;43358;50.356;12.456;2023-01-26T00:19:13;95973;;;-1.5;98.8
56558;BME280;43358;50.356;12.456;2023-01-26T00:20:15;95974;;;-1.5;98.8
56558;BME280;43358;50.356;12.456;2023-01-26T00:21:19;95971;;;-1.5;98.8
56558;BME280;43358;50.356;12.456;2023-01-26T00:22:20;95970;;;-1.5;98.8
56558;BME280;43358;50.356;12.456;2023-01-26T00:24:24;95972;;;-1.6;98.8
56558;BME280;43358;50.356;12.456;2023-01-26T00:25:40;95970;;;-1.6;98.8
56558;BME280;43358;50.356;12.456;2023-01-26T00:26:29;95968;;;-1.6;98.8
56558;BME280;43358;50.356;12.456;2023-01-26T00:27:31;95965;;;-1.6;98.8
56558;BME280;43358;50.356;12.456;2023-01-26T00:28:33;95963;;;-1.6;98.8
56558;BME280;43358;50.356;12.456;2023-01-26T00:29:35;95963;;;-1.5;98.8
56558;BME280;43358;50.356;12.456;2023-01-26T00:30:37;95959;;;-1.5;98.8
56558;BME280;43358;50.356;12.456;2023-01-26T00:31:39;95960;;;-1.5;98.8
56558;BME280;43358;50.356;12.456;2023-01-26T00:32:41;95955;;;-1.5;98.8
56558;BME280;43358;50.356;12.456;2023-01-26T00:33:43;95958;;;-1.5;98.8
56558;BME280;43358;50.356;12.456;2023-01-26T00:34:45;95959;;;-1.4;98.8
56558;BME280;43358;50.356;12.456;2023-01-26T00:35:52;95956;;;-1.4;98.8
56558;BME280;43358;50.356;12.456;2023-01-26T00:36:49;95954;;;-1.4;98.8
56558;BME280;43358;50.356;12.456;2023-01-26T00:37:51;95949;;;-1.4;98.8
56558;BME280;43358;50.356;12.456;2023-01-26T00:38:53;95949;;;-1.4;98.8
56558;BME280;43358;50.356;12.456;2023-01-26T00:39:56;95949;;;-1.4;98.8
56558;BME280;43358;50.356;12.456;2023-01-26T00:40:58;95956;;;-1.5;98.8
56558;BME280;43358;50.356;12.456;2023-01-26T00:42:01;95951;;;-1.5;98.8
56558;BME280;43358;50.356;12.456;2023-01-26T00:43:10;95951;;;-1.5;98.8
56558;BME280;43358;50.356;12.456;2023-01-26T00:44:10;95953;;;-1.6;98.8
56558;BME280;43358;50.356;12.456;2023-01-26T00:45:10;95954;;;-1.6;98.8
56558;BME280;43358;50.356;12.456;2023-01-26T00:46:10;95953;;;-1.6;98.8
56558;BME280;43358;50.356;12.456;2023-01-26T00:47:12;95952;;;-1.6;98.8
56558;BME280;43358;50.356;12.456;2023-01-26T00:48:13;95953;;;-1.6;98.8
56558;BME280;43358;50.356;12.456;2023-01-26T00:49:15;95951;;;-1.7;98.8
56558;BME280;43358;50.356;12.456;2023-01-26T00:50:18;95950;;;-1.6;98.8
56558;BME280;43358;50.356;12.456;2023-01-26T00:51:21;95947;;;-1.6;98.8
56558;BME280;43358;50.356;12.456;2023-01-26T00:52:24;95950;;;-1.6;98.8
56558;BME280;43358;50.356;12.456;2023-01-26T00:53:26;95947;;;-1.6;98.8
56558;BME280;43358;50.356;12.456;2023-01-26T00:54:28;95950;;;-1.6;98.8
56558;BME280;43358;50.356;12.456;2023-01-26T00:55:30;95945;;;-1.6;98.8
56558;BME280;43358;50.356;12.456;2023-01-26T00:56:32;95944;;;-1.6;98.8
56558;BME280;43358;50.356;12.456;2023-01-26T00:57:34;95947;;;-1.6;98.8
56558;BME280;43358;50.356;12.456;2023-01-26T00:58:36;95944;;;-1.7;98.8
56558;BME280;43358;50.356;12.456;2023-01-26T00:59:38;95948;;;-1.7;98.8
56558;BME280;43358;50.356;12.456;2023-01-26T01:00:40;95947;;;-1.7;98.8
56558;BME280;43358;50.356;12.456;2023-01-26T01:01:42;95945;;;-1.7;98.8
56558;BME280;43358;50.356;12.456;2023-01-26T01:02:44;95943;;;-1.7;98.8
56558;BME280;43358;50.356;12.456;2023-01-26T01:03:46;95944;;;-1.7;98.8
56558;BME280;43358;50.356;12.456;2023-01-26T01:04:48;95945;;;-1.7;98.8
56558;BME280;43358;50.356;12.456;2023-01-26T01:05:50;95945;;;-1.7;98.8
56558;BME280;43358;50.356;12.456;2023-01-26T01:06:52;95941;;;-1.7;98.8
56558;BME280;43358;50.356;12.456;2023-01-26T01:07:54;95943;;;-1.7;98.8
56558;BME280;43358;50.356;12.456;2023-01-26T01:08:56;95942;;;-1.7;98.8
56558;BME280;43358;50.356;12.456;2023-01-26T01:09:58;95940;;;-1.7;98.8
56558;BME280;43358;50.356;12.456;2023-01-26T01:11:02;95941;;;-1.7;98.8
56558;BME280;43358;50.356;12.456;2023-01-26T01:12:02;95938;;;-1.7;98.8
56558;BME280;43358;50.356;12.456;2023-01-26T01:13:04;95942;;;-1.7;98.8
56558;BME280;43358;50.356;12.456;2023-01-26T01:14:06;95937;;;-1.7;98.8
56558;BME280;43358;50.356;12.456;2023-01-26T01:15:09;95936;;;-1.5;98.8
56558;BME280;43358;50.356;12.456;2023-01-26T01:16:11;95935;;;-1.5;98.8
56558;BME280;43358;50.356;12.456;2023-01-26T01:17:12;95935;;;-1.5;98.8
56558;BME280;43358;50.356;12.456;2023-01-26T01:18:14;95934;;;-1.5;98.8
56558;BME280;43358;50.356;12.456;2023-01-26T01:19:16;95933;;;-1.6;98.8
56558;BME280;43358;50.356;12.456;2023-01-26T01:20:18;95939;;;-1.6;98.8
56558;BME280;43358;50.356;12.456;2023-01-26T01:21:23;95938;;;-1.5;98.8
56558;BME280;43358;50.356;12.456;2023-01-26T01:23:26;95937;;;-1.5;98.8
56558;BME280;43358;50.356;12.456;2023-01-26T01:24:28;95939;;;-1.5;98.8
56558;BME280;43358;50.356;12.456;2023-01-26T01:25:30;95936;;;-1.5;98.8
56558;BME280;43358;50.356;12.456;2023-01-26T01:26:32;95929;;;-1.5;98.8
56558;BME280;43358;50.356;12.456;2023-01-26T01:27:34;95934;;;-1.6;98.8
56558;BME280;43358;50.356;12.456;2023-01-26T01:28:36;95935;;;-1.6;98.8
56558;BME280;43358;50.356;12.456;2023-01-26T01:29:38;95931;;;-1.5;98.8
56558;BME280;43358;50.356;12.456;2023-01-26T01:30:40;95932;;;-1.5;98.8
56558;BME280;43358;50.356;12.456;2023-01-26T01:31:42;95934;;;-1.5;98.8
56558;BME280;43358;50.356;12.456;2023-01-26T01:32:44;95934;;;-1.5;98.8
56558;BME280;43358;50.356;12.456;2023-01-26T01:33:46;95934;;;-1.5;98.8
56558;BME280;43358;50.356;12.456;2023-01-26T01:34:48;95932;;;-1.5;98.8
56558;BME280;43358;50.356;12.456;2023-01-26T01:35:55;95932;;;-1.5;98.8
56558;BME280;43358;50.356;12.456;2023-01-26T01:36:53;95928;;;-1.5;98.8
56558;BME280;43358;50.356;12.456;2023-01-26T01:37:55;95930;;;-1.5;98.8
56558;BME280;43358;50.356;12.456;2023-01-26T01:38:57;95927;;;-1.4;98.8
56558;BME280;43358;50.356;12.456;2023-01-26T01:41:01;95924;;;-1.4;98.8
56558;BME280;43358;50.356;12.456;2023-01-26T01:42:03;95923;;;-1.5;98.8
56558;BME280;43358;50.356;12.456;2023-01-26T01:43:08;95920;;;-1.5;98.8
56558;BME280;43358;50.356;12.456;2023-01-26T01:44:11;95922;;;-1.5;98.8
56558;BME280;43358;50.356;12.456;2023-01-26T01:45:26;95922;;;-1.4;98.8
56558;BME280;43358;50.356;12.456;2023-01-26T01:46:14;95920;;;-1.3;98.8
56558;BME280;43358;50.356;12.456;2023-01-26T01:47:14;95918;;;-1.3;98.8
56558;BME280;43358;50.356;12.456;2023-01-26T01:48:17;95915;;;-1.4;98.8
56558;BME280;43358;50.356;12.456;2023-01-26T01:49:19;95916;;;-1.4;98.8
56558;BME280;43358;50.356;12.456;2023-01-26T01:50:21;95910;;;-1.5;98.8
56558;BME280;43358;50.356;12.456;2023-01-26T01:51:26;95907;;;-1.5;98.8
56558;BME280;43358;50.356;12.456;2023-01-26T01:52:26;95909;;;-1.5;98.8
56558;BME280;43358;50.356;12.456;2023-01-26T01:53:28;95910;;;-1.6;98.8
56558;BME280;43358;50.356;12.456;2023-01-26T01:54:31;95912;;;-1.6;98.8
56558;BME280;43358;50.356;12.456;2023-01-26T01:55:31;95908;;;-1.6;98.8
56558;BME280;43358;50.356;12.456;2023-01-26T01:56:33;95910;;;-1.6;98.8
56558;BME280;43358;50.356;12.456;2023-01-26T01:57:36;95904;;;-1.6;98.8
56558;BME280;43358;50.356;12.456;2023-01-26T01:58:38;95902;;;-1.6;98.8
56558;BME280;43358;50.356;12.456;2023-01-26T01:59:40;95903;;;-1.6;98.8
56558;BME280;43358;50.356;12.456;2023-01-26T02:00:41;95903;;;-1.7;98.8
56558;BME280;43358;50.356;12.456;2023-01-26T02:02:47;95903;;;-1.7;98.8
56558;BME280;43358;50.356;12.456;2023-01-26T02:03:48;95898;;;-1.7;98.8
56558;BME280;43358;50.356;12.456;2023-01-26T02:04:50;95899;;;-1.7;98.8
56558;BME280;43358;50.356;12.456;2023-01-26T02:05:53;95894;;;-1.7;98.8
56558;BME280;43358;50.356;12.456;2023-01-26T02:06:55;95894;;;-1.6;98.8
56558;BME280;43358;50.356;12.456;2023-01-26T02:07:56;95893;;;-1.6;98.8
56558;BME280;43358;50.356;12.456;2023-01-26T02:08:58;95890;;;-1.7;98.8
56558;BME280;43358;50.356;12.456;2023-01-26T02:10:00;95890;;;-1.7;98.8
56558;BME280;43358;50.356;12.456;2023-01-26T02:11:04;95886;;;-1.7;98.8
56558;BME280;43358;50.356;12.456;2023-01-26T02:12:04;95887;;;-1.7;98.8
56558;BME280;43358;50.356;12.456;2023-01-26T02:13:06;95885;;;-1.6;98.8
56558;BME280;43358;50.356;12.456;2023-01-26T02:14:09;95886;;;-1.6;98.8
56558;BME280;43358;50.356;12.456;2023-01-26T02:15:11;95885;;;-1.6;98.8
56558;BME280;43358;50.356;12.456;2023-01-26T02:16:13;95882;;;-1.6;98.8
56558;BME280;43358;50.356;12.456;2023-01-26T02:17:15;95884;;;-1.7;98.8
56558;BME280;43358;50.356;12.456;2023-01-26T02:18:18;95880;;;-1.6;98.8
56558;BME280;43358;50.356;12.456;2023-01-26T02:19:21;95881;;;-1.6;98.8
56558;BME280;43358;50.356;12.456;2023-01-26T02:20:24;95883;;;-1.6;98.8
56558;BME280;43358;50.356;12.456;2023-01-26T02:21:24;95878;;;-1.6;98.8
56558;BME280;43358;50.356;12.456;2023-01-26T02:22:27;95877;;;-1.6;98.8
56558;BME280;43358;50.356;12.456;2023-01-26T02:24:32;95876;;;-1.7;98.8
56558;BME280;43358;50.356;12.456;2023-01-26T02:25:35;95876;;;-1.7;98.8
56558;BME280;43358;50.356;12.456;2023-01-26T02:26:36;95876;;;-1.7;98.8
56558;BME280;43358;50.356;12.456;2023-01-26T02:27:38;95878;;;-1.7;98.8
56558;BME280;43358;50.356;12.456;2023-01-26T02:28:40;95876;;;-1.7;98.8
56558;BME280;43358;50.356;12.456;2023-01-26T02:29:42;95873;;;-1.7;98.8
56558;BME280;43358;50.356;12.456;2023-01-26T02:30:44;95875;;;-1.7;98.8
56558;BME280;43358;50.356;12.456;2023-01-26T02:31:47;95875;;;-1.7;98.8
56558;BME280;43358;50.356;12.456;2023-01-26T02:32:49;95874;;;-1.7;98.8
56558;BME280;43358;50.356;12.456;2023-01-26T02:33:51;95873;;;-1.7;98.8
56558;BME280;43358;50.356;12.456;2023-01-26T02:34:54;95875;;;-1.7;98.8
56558;BME280;43358;50.356;12.456;2023-01-26T02:35:55;95866;;;-1.7;98.8
56558;BME280;43358;50.356;12.456;2023-01-26T02:36:57;95862;;;-1.7;98.8
56558;BME280;43358;50.356;12.456;2023-01-26T02:37:59;95861;;;-1.7;98.8
56558;BME280;43358;50.356;12.456;2023-01-26T02:39:11;95862;;;-1.6;98.8
56558;BME280;43358;50.356;12.456;2023-01-26T02:40:04;95864;;;-1.6;98.8
56558;BME280;43358;50.356;12.456;2023-01-26T02:41:07;95861;;;-1.6;98.8
56558;BME280;43358;50.356;12.456;2023-01-26T02:42:08;95861;;;-1.6;98.8
56558;BME280;43358;50.356;12.456;2023-01-26T02:43:10;95866;;;-1.6;98.8
56558;BME280;43358;50.356;12.456;2023-01-26T02:44:12;95863;;;-1.6;98.8
56558;BME280;43358;50.356;12.456;2023-01-26T02:45:15;95861;;;-1.6;98.8
56558;BME280;43358;50.356;12.456;2023-01-26T02:47:19;95854;;;-1.6;98.8
56558;BME280;43358;50.356;12.456;2023-01-26T02:48:21;95856;;;-1.6;98.8
56558;BME280;43358;50.356;12.456;2023-01-26T02:49:23;95854;;;-1.6;98.8
56558;BME280;43358;50.356;12.456;2023-01-26T02:50:25;95854;;;-1.6;98.8
56558;BME280;43358;50.356;12.456;2023-01-26T02:51:27;95853;;;-1.7;98.8
56558;BME280;43358;50.356;12.456;2023-01-26T02:52:29;95851;;;-1.7;98.8
56558;BME280;43358;50.356;12.456;2023-01-26T02:53:33;95849;;;-1.7;98.8
56558;BME280;43358;50.356;12.456;2023-01-26T02:54:36;95847;;;-1.6;98.8
56558;BME280;43358;50.356;12.456;2023-01-26T02:55:39;95847;;;-1.6;98.8
56558;BME280;43358;50.356;12.456;2023-01-26T02:56:41;95849;;;-1.6;98.8
56558;BME280;43358;50.356;12.456;2023-01-26T02:57:43;95847;;;-1.6;98.8
56558;BME280;43358;50.356;12.456;2023-01-26T02:58:45;95846;;;-1.6;98.8
56558;BME280;43358;50.356;12.456;2023-01-26T02:59:47;95840;;;-1.6;98.8
56558;BME280;43358;50.356;12.456;2023-01-26T03:00:49;95840;;;-1.6;98.8
56558;BME280;43358;50.356;12.456;2023-01-26T03:01:51;95836;;;-1.6;98.8
56558;BME280;43358;50.356;12.456;2023-01-26T03:02:54;95833;;;-1.6;98.8
56558;BME280;43358;50.356;12.456;2023-01-26T03:03:55;95829;;;-1.6;98.8
56558;BME280;43358;50.356;12.456;2023-01-26T03:04:58;95829;;;-1.7;98.8
56558;BME280;43358;50.356;12.456;2023-01-26T03:06:00;95828;;;-1.7;98.8
56558;BME280;43358;50.356;12.456;2023-01-26T03:07:02;95829;;;-1.7;98.8
56558;BME280;43358;50.356;12.456;2023-01-26T03:08:04;95820;;;-1.7;98.8
56558;BME280;43358;50.356;12.456;2023-01-26T03:09:06;95822;;;-1.7;98.8
56558;BME280;43358;50.356;12.456;2023-01-26T03:10:08;95819;;;-1.7;98.8
56558;BME280;43358;50.356;12.456;2023-01-26T03:11:10;95817;;;-1.7;98.8
56558;BME280;43358;50.356;12.456;2023-01-26T03:12:12;95817;;;-1.7;98.8
56558;BME280;43358;50.356;12.456;2023-01-26T03:13:14;95815;;;-1.7;98.8
56558;BME280;43358;50.356;12.456;2023-01-26T03:14:17;95818;;;-1.7;98.8
56558;BME280;43358;50.356;12.456;2023-01-26T03:15:19;95812;;;-1.7;98.8
56558;BME280;43358;50.356;12.456;2023-01-26T03:16:22;95812;;;-1.7;98.8
56558;BME280;43358;50.356;12.456;2023-01-26T03:17:24;95812;;;-1.7;98.8
56558;BME280;43358;50.356;12.456;2023-01-26T03:18:26;95811;;;-1.7;98.8
56558;BME280;43358;50.356;12.456;2023-01-26T03:19:29;95816;;;-1.8;98.8
56558;BME280;43358;50.356;12.456;2023-01-26T03:20:31;95811;;;-1.8;98.8
56558;BME280;43358;50.356;12.456;2023-01-26T03:21:33;95813;;;-1.8;98.8
56558;BME280;43358;50.356;12.456;2023-01-26T03:23:10;95809;;;-1.8;98.8
56558;BME280;43358;50.356;12.456;2023-01-26T03:24:10;95811;;;-1.7;98.8
56558;BME280;43358;50.356;12.456;2023-01-26T03:25:10;95810;;;-1.6;98.8
56558;BME280;43358;50.356;12.456;2023-01-26T03:26:10;95810;;;-1.6;98.8
56558;BME280;43358;50.356;12.456;2023-01-26T03:27:10;95811;;;-1.6;98.8
56558;BME280;43358;50.356;12.456;2023-01-26T03:28:10;95813;;;-1.6;98.8
56558;BME280;43358;50.356;12.456;2023-01-26T03:29:10;95813;;;-1.7;98.8
56558;BME280;43358;50.356;12.456;2023-01-26T03:30:10;95812;;;-1.7;98.8
56558;BME280;43358;50.356;12.456;2023-01-26T03:31:10;95814;;;-1.7;98.8
56558;BME280;43358;50.356;12.456;2023-01-26T03:32:10;95814;;;-1.7;98.8
56558;BME280;43358;50.356;12.456;2023-01-26T03:33:10;95814;;;-1.7;98.8
56558;BME280;43358;50.356;12.456;2023-01-26T03:34:10;95813;;;-1.7;98.8
56558;BME280;43358;50.356;12.456;2023-01-26T03:35:10;95813;;;-1.7;98.8
56558;BME280;43358;50.356;12.456;2023-01-26T03:36:10;95809;;;-1.7;98.8
56558;BME280;43358;50.356;12.456;2023-01-26T03:37:10;95807;;;-1.7;98.8
56558;BME280;43358;50.356;12.456;2023-01-26T03:38:10;95807;;;-1.7;98.8
56558;BME280;43358;50.356;12.456;2023-01-26T03:39:10;95805;;;-1.7;98.8
56558;BME280;43358;50.356;12.456;2023-01-26T03:40:10;95805;;;-1.7;98.8
56558;BME280;43358;50.356;12.456;2023-01-26T03:41:11;95803;;;-1.7;98.8
56558;BME280;43358;50.356;12.456;2023-01-26T03:42:13;95805;;;-1.7;98.8
56558;BME280;43358;50.356;12.456;2023-01-26T03:43:15;95805;;;-1.7;98.8
56558;BME280;43358;50.356;12.456;2023-01-26T03:44:17;95805;;;-1.7;98.8
56558;BME280;43358;50.356;12.456;2023-01-26T03:45:20;95808;;;-1.7;98.8
56558;BME280;43358;50.356;12.456;2023-01-26T03:46:22;95810;;;-1.7;98.8
56558;BME280;43358;50.356;12.456;2023-01-26T03:47:24;95809;;;-1.7;98.8
56558;BME280;43358;50.356;12.456;2023-01-26T03:48:26;95809;;;-1.7;98.8
56558;BME280;43358;50.356;12.456;2023-01-26T03:49:29;95811;;;-1.7;98.8
56558;BME280;43358;50.356;12.456;2023-01-26T03:50:33;95808;;;-1.7;98.8
56558;BME280;43358;50.356;12.456;2023-01-26T03:51:35;95805;;;-1.7;98.8
56558;BME280;43358;50.356;12.456;2023-01-26T03:52:37;95799;;;-1.7;98.8
56558;BME280;43358;50.356;12.456;2023-01-26T03:53:40;95801;;;-1.7;98.8
56558;BME280;43358;50.356;12.456;2023-01-26T03:54:42;95805;;;-1.7;98.8
56558;BME280;43358;50.356;12.456;2023-01-26T03:55:44;95801;;;-1.7;98.8
56558;BME280;43358;50.356;12.456;2023-01-26T03:56:46;95800;;;-1.7;98.8
56558;BME280;43358;50.356;12.456;2023-01-26T03:57:48;95802;;;-1.7;98.8
56558;BME280;43358;50.356;12.456;2023-01-26T03:58:51;95802;;;-1.7;98.8
56558;BME280;43358;50.356;12.456;2023-01-26T03:59:53;95796;;;-1.8;98.8
56558;BME280;43358;50.356;12.456;2023-01-26T04:00:55;95795;;;-1.7;98.8
56558;BME280;43358;50.356;12.456;2023-01-26T04:01:57;95794;;;-1.8;98.8
56558;BME280;43358;50.356;12.456;2023-01-26T04:02:59;95793;;;-1.8;98.8
56558;BME280;43358;50.356;12.456;2023-01-26T04:04:01;95792;;;-1.7;98.8
56558;BME280;43358;50.356;12.456;2023-01-26T04:05:04;95793;;;-1.7;98.8
56558;BME280;43358;50.356;12.456;2023-01-26T04:06:06;95791;;;-1.7;98.8
56558;BME280;43358;50.356;12.456;2023-01-26T04:07:08;95794;;;-1.7;98.8
56558;BME280;43358;50.356;12.456;2023-01-26T04:08:10;95789;;;-1.7;98.8
56558;BME280;43358;50.356;12.456;2023-01-26T04:09:12;95786;;;-1.7;98.8
56558;BME280;43358;50.356;12.456;2023-01-26T04:10:14;95786;;;-1.6;98.8
56558;BME280;43358;50.356;12.456;2023-01-26T04:11:16;95784;;;-1.6;98.8
56558;BME280;43358;50.356;12.456;2023-01-26T04:12:18;95783;;;-1.6;98.6
56558;BME280;43358;50.356;12.456;2023-01-26T04:13:20;95783;;;-1.7;98.6
56558;BME280;43358;50.356;12.456;2023-01-26T04:14:23;95781;;;-1.7;98.7
56558;BME280;43358;50.356;12.456;2023-01-26T04:15:25;95782;;;-1.7;98.7
56558;BME280;43358;50.356;12.456;2023-01-26T04:16:27;95783;;;-1.7;98.8
56558;BME280;43358;50.356;12.456;2023-01-26T04:17:29;95782;;;-1.7;98.8
56558;BME280;43358;50.356;12.456;2023-01-26T04:18:31;95784;;;-1.7;98.8
56558;BME280;43358;50.356;12.456;2023-01-26T04:19:33;95783;;;-1.7;98.8
56558;BME280;43358;50.356;12.456;2023-01-26T04:20:35;95782;;;-1.7;98.8
56558;BME280;43358;50.356;12.456;2023-01-26T04:21:37;95782;;;-1.7;98.8
56558;BME280;43358;50.356;12.456;2023-01-26T04:22:39;95785;;;-1.7;98.8
56558;BME280;43358;50.356;12.456;2023-01-26T04:23:41;95782;;;-1.7;98.8
56558;BME280;43358;50.356;12.456;2023-01-26T04:24:43;95780;;;-1.8;98.8
56558;BME280;43358;50.356;12.456;2023-01-26T04:25:46;95780;;;-1.8;98.8
56558;BME280;43358;50.356;12.456;2023-01-26T04:26:48;95778;;;-1.8;98.8
56558;BME280;43358;50.356;12.456;2023-01-26T04:27:50;95781;;;-1.8;98.8
56558;BME280;43358;50.356;12.456;2023-01-26T04:28:52;95782;;;-1.8;98.8
56558;BME280;43358;50.356;12.456;2023-01-26T04:29:54;95788;;;-1.8;98.8
56558;BME280;43358;50.356;12.456;2023-01-26T04:30:56;95786;;;-1.8;98.8
56558;BME280;43358;50.356;12.456;2023-01-26T04:31:59;95787;;;-1.8;98.8
56558;BME280;43358;50.356;12.456;2023-01-26T04:33:01;95786;;;-1.7;98.8
56558;BME280;43358;50.356;12.456;2023-01-26T04:34:03;95783;;;-1.5;98.8
56558;BME280;43358;50.356;12.456;2023-01-26T04:35:05;95782;;;-1.5;98.8
56558;BME280;43358;50.356;12.456;2023-01-26T04:36:07;95784;;;-1.4;98.7
56558;BME280;43358;50.356;12.456;2023-01-26T04:37:09;95784;;;-1.4;98.4
56558;BME280;43358;50.356;12.456;2023-01-26T04:38:11;95783;;;-1.5;98.2
56558;BME280;43358;50.356;12.456;2023-01-26T04:39:13;95778;;;-1.5;98.2
56558;BME280;43358;50.356;12.456;2023-01-26T04:40:15;95776;;;-1.5;98.6
56558;BME280;43358;50.356;12.456;2023-01-26T04:41:17;95772;;;-1.5;98.5
56558;BME280;43358;50.356;12.456;2023-01-26T04:42:19;95774;;;-1.5;98.6
56558;BME280;43358;50.356;12.456;2023-01-26T04:43:21;95774;;;-1.5;98.6
56558;BME280;43358;50.356;12.456;2023-01-26T04:44:23;95774;;;-1.6;98.6
56558;BME280;43358;50.356;12.456;2023-01-26T04:45:25;95771;;;-1.6;98.7
56558;BME280;43358;50.356;12.456;2023-01-26T04:46:27;95771;;;-1.6;98.8
56558;BME280;43358;50.356;12.456;2023-01-26T04:47:29;95768;;;-1.6;98.8
56558;BME280;43358;50.356;12.456;2023-01-26T04:48:32;95771;;;-1.5;98.8
56558;BME280;43358;50.356;12.456;2023-01-26T04:49:34;95774;;;-1.3;98.7
56558;BME280;43358;50.356;12.456;2023-01-26T04:50:36;95779;;;-1.3;97.7
56558;BME280;43358;50.356;12.456;2023-01-26T04:51:38;95782;;;-1.3;97.3
56558;BME280;43358;50.356;12.456;2023-01-26T04:52:40;95783;;;-1.3;97.3
56558;BME280;43358;50.356;12.456;2023-01-26T04:53:42;95784;;;-1.3;97.1
56558;BME280;43358;50.356;12.456;2023-01-26T04:54:44;95787;;;-1.3;97.2
56558;BME280;43358;50.356;12.456;2023-01-26T04:55:46;95781;;;-1.3;97.1
56558;BME280;43358;50.356;12.456;2023-01-26T04:56:48;95784;;;-1.3;97.2
56558;BME280;43358;50.356;12.456;2023-01-26T04:57:51;95786;;;-1.3;97.2
56558;BME280;43358;50.356;12.456;2023-01-26T04:58:53;95788;;;-1.4;97.4
56558;BME280;43358;50.356;12.456;2023-01-26T04:59:55;95791;;;-1.5;97.6
56558;BME280;43358;50.356;12.456;2023-01-26T05:00:57;95788;;;-1.5;97.8
56558;BME280;43358;50.356;12.456;2023-01-26T05:01:59;95789;;;-1.5;98
56558;BME280;43358;50.356;12.456;2023-01-26T05:03:01;95792;;;-1.5;98.3
56558;BME280;43358;50.356;12.456;2023-01-26T05:04:03;95798;;;-1.5;98.4
56558;BME280;43358;50.356;12.456;2023-01-26T05:05:05;95798;;;-1.5;98.6
56558;BME280;43358;50.356;12.456;2023-01-26T05:06:07;95800;;;-1.6;98.4
56558;BME280;43358;50.356;12.456;2023-01-26T05:07:09;95796;;;-1.5;98.8
56558;BME280;43358;50.356;12.456;2023-01-26T05:08:11;95796;;;-1.5;98.6
56558;BME280;43358;50.356;12.456;2023-01-26T05:09:13;95797;;;-1.4;98.4
56558;BME280;43358;50.356;12.456;2023-01-26T05:10:15;95799;;;-1.4;98.6
56558;BME280;43358;50.356;12.456;2023-01-26T05:11:17;95799;;;-1.4;98.6
56558;BME280;43358;50.356;12.456;2023-01-26T05:12:19;95796;;;-1.5;98.5
56558;BME280;43358;50.356;12.456;2023-01-26T05:13:21;95793;;;-1.5;98.5
56558;BME280;43358;50.356;12.456;2023-01-26T05:14:24;95792;;;-1.5;98.5
56558;BME280;43358;50.356;12.456;2023-01-26T05:15:26;95794;;;-1.5;98.6
56558;BME280;43358;50.356;12.456;2023-01-26T05:16:29;95797;;;-1.4;98.3
56558;BME280;43358;50.356;12.456;2023-01-26T05:17:32;95791;;;-1.5;98
56558;BME280;43358;50.356;12.456;2023-01-26T05:18:34;95790;;;-1.5;98.1
56558;BME280;43358;50.356;12.456;2023-01-26T05:19:36;95791;;;-1.5;97.9
56558;BME280;43358;50.356;12.456;2023-01-26T05:20:38;95794;;;-1.5;97.8
56558;BME280;43358;50.356;12.456;2023-01-26T05:21:40;95797;;;-1.5;97.8
56558;BME280;43358;50.356;12.456;2023-01-26T05:22:42;95792;;;-1.4;98.1
56558;BME280;43358;50.356;12.456;2023-01-26T05:23:44;95789;;;-1.4;97.8
56558;BME280;43358;50.356;12.456;2023-01-26T05:24:46;95790;;;-1.3;97.5
56558;BME280;43358;50.356;12.456;2023-01-26T05:25:48;95788;;;-1.3;97
56558;BME280;43358;50.356;12.456;2023-01-26T05:26:51;95790;;;-1.4;96.8
56558;BME280;43358;50.356;12.456;2023-01-26T05:27:53;95795;;;-1.4;97.1
56558;BME280;43358;50.356;12.456;2023-01-26T05:28:55;95799;;;-1.5;97.4
56558;BME280;43358;50.356;12.456;2023-01-26T05:29:57;95800;;;-1.5;97.6
56558;BME280;43358;50.356;12.456;2023-01-26T05:30:59;95798;;;-1.5;97.7
56558;BME280;43358;50.356;12.456;2023-01-26T05:32:01;95801;;;-1.5;98.1
56558;BME280;43358;50.356;12.456;2023-01-26T05:33:04;95802;;;-1.5;98.1
56558;BME280;43358;50.356;12.456;2023-01-26T05:34:05;95806;;;-1.4;98
56558;BME280;43358;50.356;12.456;2023-01-26T05:35:07;95803;;;-1.4;97.8
56558;BME280;43358;50.356;12.456;2023-01-26T05:36:09;95799;;;-1.5;97.8
56558;BME280;43358;50.356;12.456;2023-01-26T05:38:13;95796;;;-1.5;98.3
56558;BME280;43358;50.356;12.456;2023-01-26T05:39:15;95796;;;-1.5;98.2
56558;BME280;43358;50.356;12.456;2023-01-26T05:40:18;95792;;;-1.6;98.4
56558;BME280;43358;50.356;12.456;2023-01-26T05:41:20;95797;;;-1.6;98.6
56558;BME280;43358;50.356;12.456;2023-01-26T05:42:22;95797;;;-1.6;98.8
56558;BME280;43358;50.356;12.456;2023-01-26T05:43:24;95801;;;-1.6;98.8
56558;BME280;43358;50.356;12.456;2023-01-26T05:44:26;95796;;;-1.6;98.8
56558;BME280;43358;50.356;12.456;2023-01-26T05:45:29;95794;;;-1.6;98.8
56558;BME280;43358;50.356;12.456;2023-01-26T05:46:32;95795;;;-1.6;98.8
56558;BME280;43358;50.356;12.456;2023-01-26T05:47:35;95797;;;-1.7;98.8
56558;BME280;43358;50.356;12.456;2023-01-26T05:48:36;95798;;;-1.7;98.8
56558;BME280;43358;50.356;12.456;2023-01-26T05:49:39;95801;;;-1.7;98.8
56558;BME280;43358;50.356;12.456;2023-01-26T05:50:41;95801;;;-1.7;98.8
56558;BME280;43358;50.356;12.456;2023-01-26T05:51:43;95799;;;-1.7;98.8
56558;BME280;43358;50.356;12.456;2023-01-26T05:52:45;95797;;;-1.7;98.8
56558;BME280;43358;50.356;12.456;2023-01-26T05:53:48;95797;;;-1.7;98.8
56558;BME280;43358;50.356;12.456;2023-01-26T05:54:50;95798;;;-1.6;98.8